Aérodrome :
LOGIN :

S'inscrire | Disclaimer

   EN    FR    IT 

 










Légende :    VFR   VFR Marginal   IFR   IFR Intensif   IFR Très Intensif
Visi : 
Plafond : 
>= 8 km
>= 3000ft
5 à 8 km
1000 à 3000 ft
1500m à 5 km
500 à 1000 ft
800 à 1500m
200 à 500 ft
< 800m
< 200 ft
Symboles :   Orages  Brouillard  Fortes neiges  Fortes précipitations  Vent > 20 kt
SIGMETs :   Divers  Orages  Givrage  Turbulence  Onde Orograph.  Cendres Volcan.






- Altitude de l'aérodrome : 302 ft
- Code IATA : MAH


LEMH - Menorca

DERNIER METAR :
  • 210030Z AUTO 00000KT CAVOK 07/06 Q1027

METARs EXPIRÉS :
  • 210000Z AUTO 33002KT CAVOK 07/06 Q1027
  • 202330Z AUTO 00000KT CAVOK 07/06 Q1027
  • 202300Z AUTO 00000KT CAVOK 07/05 Q1027
  • 202230Z AUTO 02004KT CAVOK 09/07 Q1027
  • 202200Z AUTO 03004KT CAVOK 08/06 Q1027

TAF TAF LEMH
Valide du 20 à 21h jusqu'au 21 à 21h UTC


202000Z 2021/2121 VRB04KT 9999 FEW010 SCT020 TX16/2113Z TN06/2106Z
BECMG 2100/2102 01010KT



MET'MAP, la Météo Aéronautique d'un coup d'oeil ! - Copyright ORBIFLY Décembre 2007 - Disclaimer

ORBIFLY MET'MAP TEAM :

Programmation & Développement : Alexandra Zaïnal
Sur une idée originale de : Baudouin d'Aumeries
Assistance à la programmation : Marc-Olivier Méhu
Soutien technique & logistique : Manuel Goepfert

Contact : metmap@orbifly.com




SOURCES & CREDITS :

   NOAA